sensor_id;sensor_type;location;lat;lon;timestamp;P1;durP1;ratioP1;P2;durP2;ratioP2
11865;SDS011;5992;52.744;6.898;2022-08-19T00:00:09;1.90;;;1.80;;
11865;SDS011;5992;52.744;6.898;2022-08-19T00:03:34;2.30;;;1.80;;
11865;SDS011;5992;52.744;6.898;2022-08-19T00:06:47;2.85;;;1.70;;
11865;SDS011;5992;52.744;6.898;2022-08-19T00:10:11;2.10;;;2.00;;
11865;SDS011;5992;52.744;6.898;2022-08-19T00:13:24;2.03;;;1.93;;
11865;SDS011;5992;52.744;6.898;2022-08-19T00:16:37;1.75;;;1.65;;
11865;SDS011;5992;52.744;6.898;2022-08-19T00:19:50;2.60;;;2.17;;
11865;SDS011;5992;52.744;6.898;2022-08-19T00:23:15;2.05;;;1.80;;
11865;SDS011;5992;52.744;6.898;2022-08-19T00:26:27;2.50;;;2.30;;
11865;SDS011;5992;52.744;6.898;2022-08-19T00:29:52;2.00;;;1.80;;
11865;SDS011;5992;52.744;6.898;2022-08-19T00:33:04;2.10;;;2.00;;
11865;SDS011;5992;52.744;6.898;2022-08-19T00:36:19;2.40;;;2.20;;
11865;SDS011;5992;52.744;6.898;2022-08-19T00:39:32;3.30;;;2.67;;
11865;SDS011;5992;52.744;6.898;2022-08-19T00:42:45;2.50;;;2.30;;
11865;SDS011;5992;52.744;6.898;2022-08-19T00:45:57;4.10;;;1.90;;
11865;SDS011;5992;52.744;6.898;2022-08-19T00:49:22;2.50;;;2.30;;
11865;SDS011;5992;52.744;6.898;2022-08-19T00:52:36;2.50;;;2.10;;
11865;SDS011;5992;52.744;6.898;2022-08-19T00:55:59;2.33;;;2.20;;
11865;SDS011;5992;52.744;6.898;2022-08-19T00:59:11;2.70;;;2.50;;
11865;SDS011;5992;52.744;6.898;2022-08-19T01:02:36;2.85;;;2.30;;
11865;SDS011;5992;52.744;6.898;2022-08-19T01:05:51;2.90;;;2.70;;
11865;SDS011;5992;52.744;6.898;2022-08-19T01:09:17;2.70;;;2.50;;
11865;SDS011;5992;52.744;6.898;2022-08-19T01:12:31;2.70;;;2.50;;
11865;SDS011;5992;52.744;6.898;2022-08-19T01:15:56;2.63;;;2.43;;
11865;SDS011;5992;52.744;6.898;2022-08-19T01:19:09;2.70;;;2.50;;
11865;SDS011;5992;52.744;6.898;2022-08-19T01:22:35;2.80;;;2.63;;
11865;SDS011;5992;52.744;6.898;2022-08-19T01:25:48;2.87;;;2.57;;
11865;SDS011;5992;52.744;6.898;2022-08-19T01:29:11;2.65;;;2.50;;
11865;SDS011;5992;52.744;6.898;2022-08-19T01:32:20;2.60;;;2.40;;
11865;SDS011;5992;52.744;6.898;2022-08-19T01:35:33;2.63;;;2.43;;
11865;SDS011;5992;52.744;6.898;2022-08-19T01:38:47;2.40;;;2.30;;
11865;SDS011;5992;52.744;6.898;2022-08-19T01:42:10;3.83;;;2.77;;
11865;SDS011;5992;52.744;6.898;2022-08-19T01:45:11;2.80;;;2.60;;
11865;SDS011;5992;52.744;6.898;2022-08-19T01:48:24;2.75;;;2.55;;
11865;SDS011;5992;52.744;6.898;2022-08-19T01:51:36;2.97;;;2.70;;
11865;SDS011;5992;52.744;6.898;2022-08-19T01:55:03;3.20;;;3.00;;
11865;SDS011;5992;52.744;6.898;2022-08-19T01:58:15;2.63;;;2.43;;
11865;SDS011;5992;52.744;6.898;2022-08-19T02:01:38;3.03;;;2.80;;
11865;SDS011;5992;52.744;6.898;2022-08-19T02:04:51;2.97;;;2.77;;
11865;SDS011;5992;52.744;6.898;2022-08-19T02:07:50;2.93;;;2.73;;
11865;SDS011;5992;52.744;6.898;2022-08-19T02:11:20;2.80;;;2.60;;
11865;SDS011;5992;52.744;6.898;2022-08-19T02:14:34;2.80;;;2.60;;
11865;SDS011;5992;52.744;6.898;2022-08-19T02:17:58;2.93;;;2.73;;
11865;SDS011;5992;52.744;6.898;2022-08-19T02:20:59;2.70;;;2.50;;
11865;SDS011;5992;52.744;6.898;2022-08-19T02:24:12;3.25;;;2.80;;
11865;SDS011;5992;52.744;6.898;2022-08-19T02:27:15;2.97;;;2.77;;
11865;SDS011;5992;52.744;6.898;2022-08-19T02:30:37;3.00;;;2.80;;
11865;SDS011;5992;52.744;6.898;2022-08-19T02:33:48;3.30;;;3.00;;
11865;SDS011;5992;52.744;6.898;2022-08-19T02:37:12;3.03;;;2.83;;
11865;SDS011;5992;52.744;6.898;2022-08-19T02:40:31;3.53;;;2.70;;
11865;SDS011;5992;52.744;6.898;2022-08-19T02:43:56;4.37;;;3.17;;
11865;SDS011;5992;52.744;6.898;2022-08-19T02:47:09;3.03;;;2.80;;
11865;SDS011;5992;52.744;6.898;2022-08-19T02:50:30;3.20;;;3.00;;
11865;SDS011;5992;52.744;6.898;2022-08-19T02:53:43;2.80;;;2.60;;
11865;SDS011;5992;52.744;6.898;2022-08-19T02:56:56;4.30;;;3.05;;
11865;SDS011;5992;52.744;6.898;2022-08-19T03:00:10;3.40;;;2.90;;
11865;SDS011;5992;52.744;6.898;2022-08-19T03:03:34;3.05;;;2.85;;
11865;SDS011;5992;52.744;6.898;2022-08-19T03:06:36;3.03;;;2.83;;
11865;SDS011;5992;52.744;6.898;2022-08-19T03:09:59;3.17;;;2.97;;
11865;SDS011;5992;52.744;6.898;2022-08-19T03:13:00;4.30;;;3.35;;
11865;SDS011;5992;52.744;6.898;2022-08-19T03:16:29;3.37;;;2.90;;
11865;SDS011;5992;52.744;6.898;2022-08-19T03:19:43;4.65;;;3.40;;
11865;SDS011;5992;52.744;6.898;2022-08-19T03:23:07;4.30;;;3.90;;
11865;SDS011;5992;52.744;6.898;2022-08-19T03:26:20;3.23;;;2.93;;
11865;SDS011;5992;52.744;6.898;2022-08-19T03:29:44;4.30;;;3.33;;
11865;SDS011;5992;52.744;6.898;2022-08-19T03:32:46;3.37;;;3.17;;
11865;SDS011;5992;52.744;6.898;2022-08-19T03:36:10;3.00;;;2.80;;
11865;SDS011;5992;52.744;6.898;2022-08-19T03:39:23;3.33;;;3.13;;
11865;SDS011;5992;52.744;6.898;2022-08-19T03:42:46;4.20;;;3.90;;
11865;SDS011;5992;52.744;6.898;2022-08-19T03:46:01;3.20;;;2.90;;
11865;SDS011;5992;52.744;6.898;2022-08-19T03:49:28;3.20;;;2.90;;
11865;SDS011;5992;52.744;6.898;2022-08-19T03:52:39;3.77;;;3.47;;
11865;SDS011;5992;52.744;6.898;2022-08-19T03:56:04;3.60;;;3.30;;
11865;SDS011;5992;52.744;6.898;2022-08-19T03:59:17;3.70;;;3.40;;
11865;SDS011;5992;52.744;6.898;2022-08-19T04:02:40;3.90;;;3.60;;
11865;SDS011;5992;52.744;6.898;2022-08-19T04:06:13;4.00;;;3.70;;
11865;SDS011;5992;52.744;6.898;2022-08-19T04:09:24;3.55;;;3.25;;
11865;SDS011;5992;52.744;6.898;2022-08-19T04:12:54;4.10;;;3.80;;
11865;SDS011;5992;52.744;6.898;2022-08-19T04:15:55;4.30;;;3.90;;
11865;SDS011;5992;52.744;6.898;2022-08-19T04:19:08;4.15;;;3.75;;
11865;SDS011;5992;52.744;6.898;2022-08-19T04:22:22;3.85;;;3.45;;
11865;SDS011;5992;52.744;6.898;2022-08-19T04:25:45;3.70;;;3.40;;
11865;SDS011;5992;52.744;6.898;2022-08-19T04:28:47;3.55;;;3.30;;
11865;SDS011;5992;52.744;6.898;2022-08-19T04:32:08;3.75;;;3.45;;
11865;SDS011;5992;52.744;6.898;2022-08-19T04:35:09;4.63;;;4.23;;
11865;SDS011;5992;52.744;6.898;2022-08-19T04:38:37;3.93;;;3.63;;
11865;SDS011;5992;52.744;6.898;2022-08-19T04:41:50;4.13;;;3.70;;
11865;SDS011;5992;52.744;6.898;2022-08-19T04:45:09;4.80;;;4.33;;
11865;SDS011;5992;52.744;6.898;2022-08-19T04:48:21;3.90;;;3.60;;
11865;SDS011;5992;52.744;6.898;2022-08-19T04:51:45;4.90;;;4.10;;
11865;SDS011;5992;52.744;6.898;2022-08-19T04:54:58;4.20;;;3.83;;
11865;SDS011;5992;52.744;6.898;2022-08-19T04:58:22;4.43;;;4.10;;
11865;SDS011;5992;52.744;6.898;2022-08-19T05:01:34;4.40;;;4.00;;
11865;SDS011;5992;52.744;6.898;2022-08-19T05:04:59;4.57;;;4.13;;
11865;SDS011;5992;52.744;6.898;2022-08-19T05:08:11;3.73;;;3.43;;
11865;SDS011;5992;52.744;6.898;2022-08-19T05:11:36;3.80;;;3.50;;
11865;SDS011;5992;52.744;6.898;2022-08-19T05:14:49;4.70;;;4.20;;
11865;SDS011;5992;52.744;6.898;2022-08-19T05:18:01;4.10;;;3.80;;
11865;SDS011;5992;52.744;6.898;2022-08-19T05:21:07;4.20;;;3.90;;
11865;SDS011;5992;52.744;6.898;2022-08-19T05:24:37;4.90;;;4.47;;
11865;SDS011;5992;52.744;6.898;2022-08-19T05:27:50;4.43;;;4.03;;
11865;SDS011;5992;52.744;6.898;2022-08-19T05:31:15;3.87;;;3.57;;
11865;SDS011;5992;52.744;6.898;2022-08-19T05:34:16;4.40;;;4.00;;
11865;SDS011;5992;52.744;6.898;2022-08-19T05:37:40;3.90;;;3.60;;
11865;SDS011;5992;52.744;6.898;2022-08-19T05:40:41;3.73;;;3.43;;
11865;SDS011;5992;52.744;6.898;2022-08-19T05:44:06;3.60;;;3.30;;
11865;SDS011;5992;52.744;6.898;2022-08-19T05:47:18;4.70;;;3.35;;
11865;SDS011;5992;52.744;6.898;2022-08-19T05:50:42;3.70;;;3.40;;
11865;SDS011;5992;52.744;6.898;2022-08-19T05:53:40;4.30;;;3.60;;
11865;SDS011;5992;52.744;6.898;2022-08-19T05:56:53;4.05;;;3.65;;
11865;SDS011;5992;52.744;6.898;2022-08-19T06:00:07;3.60;;;3.30;;
11865;SDS011;5992;52.744;6.898;2022-08-19T06:03:31;3.75;;;3.45;;
11865;SDS011;5992;52.744;6.898;2022-08-19T06:06:43;3.30;;;3.10;;
11865;SDS011;5992;52.744;6.898;2022-08-19T06:10:08;3.77;;;3.47;;
11865;SDS011;5992;52.744;6.898;2022-08-19T06:13:20;4.00;;;3.70;;
11865;SDS011;5992;52.744;6.898;2022-08-19T06:16:45;3.75;;;3.25;;
11865;SDS011;5992;52.744;6.898;2022-08-19T06:19:58;3.67;;;3.37;;
11865;SDS011;5992;52.744;6.898;2022-08-19T06:23:23;5.00;;;4.07;;
11865;SDS011;5992;52.744;6.898;2022-08-19T06:26:24;3.65;;;3.35;;
11865;SDS011;5992;52.744;6.898;2022-08-19T06:29:45;6.07;;;5.47;;
11865;SDS011;5992;52.744;6.898;2022-08-19T06:32:58;3.53;;;3.23;;
11865;SDS011;5992;52.744;6.898;2022-08-19T06:36:24;3.85;;;3.50;;
11865;SDS011;5992;52.744;6.898;2022-08-19T06:39:36;3.87;;;3.57;;
11865;SDS011;5992;52.744;6.898;2022-08-19T06:42:59;4.07;;;3.70;;
11865;SDS011;5992;52.744;6.898;2022-08-19T06:46:00;4.43;;;4.03;;
11865;SDS011;5992;52.744;6.898;2022-08-19T06:49:15;4.90;;;4.37;;
11865;SDS011;5992;52.744;6.898;2022-08-19T06:52:26;4.30;;;3.90;;
11865;SDS011;5992;52.744;6.898;2022-08-19T06:55:40;4.30;;;3.87;;
11865;SDS011;5992;52.744;6.898;2022-08-19T06:58:41;5.63;;;5.13;;
11865;SDS011;5992;52.744;6.898;2022-08-19T07:02:05;3.65;;;3.35;;
11865;SDS011;5992;52.744;6.898;2022-08-19T07:05:18;5.87;;;4.43;;
11865;SDS011;5992;52.744;6.898;2022-08-19T07:08:43;4.70;;;4.05;;
11865;SDS011;5992;52.744;6.898;2022-08-19T07:11:56;5.37;;;4.80;;
11865;SDS011;5992;52.744;6.898;2022-08-19T07:15:19;4.13;;;3.83;;
11865;SDS011;5992;52.744;6.898;2022-08-19T07:18:20;3.90;;;3.50;;
11865;SDS011;5992;52.744;6.898;2022-08-19T07:21:46;4.57;;;4.17;;
11865;SDS011;5992;52.744;6.898;2022-08-19T07:24:58;7.17;;;3.93;;
11865;SDS011;5992;52.744;6.898;2022-08-19T07:28:23;4.45;;;3.90;;
11865;SDS011;5992;52.744;6.898;2022-08-19T07:31:36;4.70;;;4.20;;
11865;SDS011;5992;52.744;6.898;2022-08-19T07:35:00;4.10;;;3.70;;
11865;SDS011;5992;52.744;6.898;2022-08-19T07:38:03;4.50;;;4.10;;
11865;SDS011;5992;52.744;6.898;2022-08-19T07:41:28;5.93;;;3.90;;
11865;SDS011;5992;52.744;6.898;2022-08-19T07:44:40;6.23;;;3.60;;
11865;SDS011;5992;52.744;6.898;2022-08-19T07:48:00;4.03;;;3.50;;
11865;SDS011;5992;52.744;6.898;2022-08-19T07:51:03;4.40;;;4.00;;
11865;SDS011;5992;52.744;6.898;2022-08-19T07:54:27;4.13;;;3.70;;
11865;SDS011;5992;52.744;6.898;2022-08-19T07:57:40;3.80;;;3.50;;
11865;SDS011;5992;52.744;6.898;2022-08-19T08:00:53;5.13;;;4.73;;
11865;SDS011;5992;52.744;6.898;2022-08-19T08:04:17;4.00;;;3.70;;
11865;SDS011;5992;52.744;6.898;2022-08-19T08:07:35;4.00;;;3.70;;
11865;SDS011;5992;52.744;6.898;2022-08-19T08:10:55;3.65;;;3.35;;
11865;SDS011;5992;52.744;6.898;2022-08-19T08:14:08;7.55;;;3.70;;
11865;SDS011;5992;52.744;6.898;2022-08-19T08:17:31;4.43;;;3.40;;
11865;SDS011;5992;52.744;6.898;2022-08-19T08:20:43;6.47;;;5.90;;
11865;SDS011;5992;52.744;6.898;2022-08-19T08:24:07;4.07;;;3.77;;
11865;SDS011;5992;52.744;6.898;2022-08-19T08:27:21;3.50;;;3.20;;
11865;SDS011;5992;52.744;6.898;2022-08-19T08:30:46;4.50;;;4.10;;
11865;SDS011;5992;52.744;6.898;2022-08-19T08:33:57;5.03;;;4.27;;
11865;SDS011;5992;52.744;6.898;2022-08-19T08:37:10;6.63;;;4.47;;
11865;SDS011;5992;52.744;6.898;2022-08-19T08:40:14;4.43;;;4.13;;
11865;SDS011;5992;52.744;6.898;2022-08-19T08:43:38;3.83;;;3.53;;
11865;SDS011;5992;52.744;6.898;2022-08-19T08:46:52;3.83;;;3.37;;
11865;SDS011;5992;52.744;6.898;2022-08-19T08:50:17;3.20;;;3.00;;
11865;SDS011;5992;52.744;6.898;2022-08-19T08:53:27;3.57;;;3.27;;
11865;SDS011;5992;52.744;6.898;2022-08-19T08:56:51;3.83;;;3.40;;
11865;SDS011;5992;52.744;6.898;2022-08-19T09:00:07;4.40;;;3.27;;
11865;SDS011;5992;52.744;6.898;2022-08-19T09:03:29;5.17;;;4.37;;
11865;SDS011;5992;52.744;6.898;2022-08-19T09:06:44;6.27;;;4.83;;
11865;SDS011;5992;52.744;6.898;2022-08-19T09:10:08;4.13;;;3.73;;
11865;SDS011;5992;52.744;6.898;2022-08-19T09:13:21;4.40;;;4.00;;
11865;SDS011;5992;52.744;6.898;2022-08-19T09:16:46;4.23;;;3.73;;
11865;SDS011;5992;52.744;6.898;2022-08-19T09:20:14;6.10;;;3.90;;
11865;SDS011;5992;52.744;6.898;2022-08-19T09:23:37;5.17;;;4.33;;
11865;SDS011;5992;52.744;6.898;2022-08-19T09:26:49;3.40;;;3.00;;
11865;SDS011;5992;52.744;6.898;2022-08-19T09:30:02;5.37;;;3.73;;
11865;SDS011;5992;52.744;6.898;2022-08-19T09:33:15;3.27;;;2.67;;
11865;SDS011;5992;52.744;6.898;2022-08-19T09:36:39;3.20;;;2.90;;
11865;SDS011;5992;52.744;6.898;2022-08-19T09:39:40;2.60;;;2.40;;
11865;SDS011;5992;52.744;6.898;2022-08-19T09:43:05;2.97;;;2.73;;
11865;SDS011;5992;52.744;6.898;2022-08-19T09:46:06;2.90;;;2.70;;
11865;SDS011;5992;52.744;6.898;2022-08-19T09:49:32;3.13;;;2.90;;
11865;SDS011;5992;52.744;6.898;2022-08-19T09:52:44;3.03;;;2.80;;
11865;SDS011;5992;52.744;6.898;2022-08-19T09:56:08;3.07;;;2.87;;
11865;SDS011;5992;52.744;6.898;2022-08-19T09:59:20;2.80;;;2.60;;
11865;SDS011;5992;52.744;6.898;2022-08-19T10:02:44;5.20;;;4.80;;
11865;SDS011;5992;52.744;6.898;2022-08-19T10:05:59;3.90;;;3.60;;
11865;SDS011;5992;52.744;6.898;2022-08-19T10:09:10;3.90;;;3.60;;
11865;SDS011;5992;52.744;6.898;2022-08-19T10:12:35;3.37;;;2.40;;
11865;SDS011;5992;52.744;6.898;2022-08-19T10:15:47;3.63;;;3.30;;
11865;SDS011;5992;52.744;6.898;2022-08-19T10:19:11;3.80;;;3.50;;
11865;SDS011;5992;52.744;6.898;2022-08-19T10:22:13;3.17;;;2.97;;
11865;SDS011;5992;52.744;6.898;2022-08-19T10:25:38;3.50;;;2.70;;
11865;SDS011;5992;52.744;6.898;2022-08-19T10:28:50;3.30;;;2.90;;
11865;SDS011;5992;52.744;6.898;2022-08-19T11:17:38;4.10;;;3.80;;
11865;SDS011;5992;52.744;6.898;2022-08-19T11:20:50;3.40;;;3.20;;
11865;SDS011;5992;52.744;6.898;2022-08-19T11:24:03;3.30;;;3.10;;
11865;SDS011;5992;52.744;6.898;2022-08-19T11:27:17;3.70;;;3.40;;
11865;SDS011;5992;52.744;6.898;2022-08-19T11:30:44;6.60;;;3.00;;
11865;SDS011;5992;52.744;6.898;2022-08-19T11:33:45;4.90;;;4.60;;
11865;SDS011;5992;52.744;6.898;2022-08-19T11:37:09;4.35;;;2.92;;
11865;SDS011;5992;52.744;6.898;2022-08-19T11:40:10;4.20;;;3.93;;
11865;SDS011;5992;52.744;6.898;2022-08-19T11:43:25;5.50;;;3.57;;
11865;SDS011;5992;52.744;6.898;2022-08-19T11:46:38;3.17;;;2.95;;
11865;SDS011;5992;52.744;6.898;2022-08-19T11:50:02;3.10;;;2.90;;
11865;SDS011;5992;52.744;6.898;2022-08-19T11:53:15;3.95;;;3.65;;
11865;SDS011;5992;52.744;6.898;2022-08-19T11:56:39;3.17;;;2.97;;
11865;SDS011;5992;52.744;6.898;2022-08-19T11:59:52;3.30;;;3.00;;
11865;SDS011;5992;52.744;6.898;2022-08-19T12:03:18;3.05;;;2.85;;
11865;SDS011;5992;52.744;6.898;2022-08-19T12:06:31;3.53;;;3.23;;
11865;SDS011;5992;52.744;6.898;2022-08-19T12:09:54;3.00;;;2.80;;
11865;SDS011;5992;52.744;6.898;2022-08-19T12:13:06;3.43;;;3.13;;
11865;SDS011;5992;52.744;6.898;2022-08-19T12:16:21;3.33;;;3.13;;
11865;SDS011;5992;52.744;6.898;2022-08-19T12:19:33;4.00;;;3.67;;
11865;SDS011;5992;52.744;6.898;2022-08-19T12:22:46;3.50;;;3.30;;
11865;SDS011;5992;52.744;6.898;2022-08-19T12:25:48;3.60;;;3.40;;
11865;SDS011;5992;52.744;6.898;2022-08-19T12:29:11;3.57;;;3.37;;
11865;SDS011;5992;52.744;6.898;2022-08-19T12:32:13;3.20;;;2.90;;
11865;SDS011;5992;52.744;6.898;2022-08-19T12:35:39;3.37;;;3.15;;
11865;SDS011;5992;52.744;6.898;2022-08-19T12:38:54;3.53;;;3.33;;
11865;SDS011;5992;52.744;6.898;2022-08-19T12:42:18;3.10;;;2.90;;
11865;SDS011;5992;52.744;6.898;2022-08-19T12:45:19;3.55;;;3.35;;
11865;SDS011;5992;52.744;6.898;2022-08-19T12:48:45;3.87;;;3.57;;
11865;SDS011;5992;52.744;6.898;2022-08-19T12:51:57;3.75;;;3.40;;
11865;SDS011;5992;52.744;6.898;2022-08-19T12:55:10;9.50;;;4.00;;
11865;SDS011;5992;52.744;6.898;2022-08-19T12:58:11;3.97;;;3.50;;
11865;SDS011;5992;52.744;6.898;2022-08-19T13:01:36;6.27;;;3.27;;
11865;SDS011;5992;52.744;6.898;2022-08-19T13:04:49;7.60;;;3.50;;
11865;SDS011;5992;52.744;6.898;2022-08-19T13:08:18;4.87;;;3.40;;
11865;SDS011;5992;52.744;6.898;2022-08-19T13:11:19;4.20;;;3.55;;
11865;SDS011;5992;52.744;6.898;2022-08-19T13:14:43;3.50;;;3.20;;
11865;SDS011;5992;52.744;6.898;2022-08-19T13:17:44;8.20;;;3.40;;
11865;SDS011;5992;52.744;6.898;2022-08-19T13:21:02;3.75;;;3.45;;
11865;SDS011;5992;52.744;6.898;2022-08-19T13:24:14;3.00;;;2.80;;
11865;SDS011;5992;52.744;6.898;2022-08-19T13:27:26;4.15;;;3.20;;
11865;SDS011;5992;52.744;6.898;2022-08-19T13:30:27;4.00;;;3.23;;
11865;SDS011;5992;52.744;6.898;2022-08-19T13:33:45;3.45;;;3.25;;
11865;SDS011;5992;52.744;6.898;2022-08-19T13:36:48;4.07;;;3.12;;
11865;SDS011;5992;52.744;6.898;2022-08-19T13:40:24;5.23;;;3.67;;
11865;SDS011;5992;52.744;6.898;2022-08-19T13:43:35;3.33;;;3.12;;
11865;SDS011;5992;52.744;6.898;2022-08-19T13:46:48;3.28;;;3.08;;
11865;SDS011;5992;52.744;6.898;2022-08-19T13:50:02;3.60;;;3.40;;
11865;SDS011;5992;52.744;6.898;2022-08-19T13:53:27;3.92;;;3.53;;
11865;SDS011;5992;52.744;6.898;2022-08-19T13:56:40;3.70;;;3.40;;
11865;SDS011;5992;52.744;6.898;2022-08-19T14:00:04;3.67;;;3.40;;
11865;SDS011;5992;52.744;6.898;2022-08-19T14:03:28;3.40;;;3.10;;
11865;SDS011;5992;52.744;6.898;2022-08-19T14:06:40;4.10;;;3.57;;
11865;SDS011;5992;52.744;6.898;2022-08-19T14:09:55;3.73;;;3.43;;
11865;SDS011;5992;52.744;6.898;2022-08-19T14:13:05;3.70;;;3.50;;
11865;SDS011;5992;52.744;6.898;2022-08-19T14:16:29;3.80;;;3.60;;
11865;SDS011;5992;52.744;6.898;2022-08-19T14:19:30;3.60;;;3.30;;
11865;SDS011;5992;52.744;6.898;2022-08-19T14:22:43;3.95;;;3.30;;
11865;SDS011;5992;52.744;6.898;2022-08-19T14:26:03;3.78;;;3.47;;
11865;SDS011;5992;52.744;6.898;2022-08-19T14:29:27;3.27;;;3.00;;
11865;SDS011;5992;52.744;6.898;2022-08-19T14:32:28;3.45;;;3.25;;
11865;SDS011;5992;52.744;6.898;2022-08-19T14:35:42;3.55;;;3.25;;
11865;SDS011;5992;52.744;6.898;2022-08-19T14:38:41;3.70;;;3.50;;
11865;SDS011;5992;52.744;6.898;2022-08-19T14:42:08;3.47;;;3.27;;
11865;SDS011;5992;52.744;6.898;2022-08-19T14:45:21;3.70;;;3.50;;
11865;SDS011;5992;52.744;6.898;2022-08-19T14:48:44;3.97;;;3.50;;
11865;SDS011;5992;52.744;6.898;2022-08-19T14:51:56;4.10;;;3.80;;
11865;SDS011;5992;52.744;6.898;2022-08-19T14:55:09;3.42;;;3.22;;
11865;SDS011;5992;52.744;6.898;2022-08-19T14:58:23;4.00;;;3.60;;
11865;SDS011;5992;52.744;6.898;2022-08-19T15:01:47;3.87;;;3.58;;
11865;SDS011;5992;52.744;6.898;2022-08-19T15:04:47;3.87;;;3.57;;
11865;SDS011;5992;52.744;6.898;2022-08-19T15:08:11;3.53;;;3.33;;
11865;SDS011;5992;52.744;6.898;2022-08-19T15:11:14;3.30;;;3.10;;
11865;SDS011;5992;52.744;6.898;2022-08-19T15:14:41;3.62;;;3.25;;
11865;SDS011;5992;52.744;6.898;2022-08-19T15:17:53;3.40;;;3.20;;
11865;SDS011;5992;52.744;6.898;2022-08-19T15:21:17;3.20;;;3.00;;
11865;SDS011;5992;52.744;6.898;2022-08-19T15:24:29;3.03;;;2.83;;
11865;SDS011;5992;52.744;6.898;2022-08-19T15:27:42;3.67;;;3.37;;
11865;SDS011;5992;52.744;6.898;2022-08-19T15:30:55;4.15;;;3.72;;
11865;SDS011;5992;52.744;6.898;2022-08-19T15:34:19;4.23;;;3.83;;
11865;SDS011;5992;52.744;6.898;2022-08-19T15:37:32;3.90;;;3.60;;
11865;SDS011;5992;52.744;6.898;2022-08-19T15:40:55;4.35;;;4.00;;
11865;SDS011;5992;52.744;6.898;2022-08-19T15:43:57;4.57;;;4.27;;
11865;SDS011;5992;52.744;6.898;2022-08-19T15:47:23;4.60;;;4.20;;
11865;SDS011;5992;52.744;6.898;2022-08-19T15:50:35;4.27;;;3.93;;
11865;SDS011;5992;52.744;6.898;2022-08-19T15:53:59;4.10;;;3.80;;
11865;SDS011;5992;52.744;6.898;2022-08-19T15:57:11;4.22;;;3.92;;
11865;SDS011;5992;52.744;6.898;2022-08-19T16:00:30;4.87;;;4.20;;
11865;SDS011;5992;52.744;6.898;2022-08-19T16:04:01;5.47;;;4.90;;
11865;SDS011;5992;52.744;6.898;2022-08-19T16:07:20;4.62;;;4.32;;
11865;SDS011;5992;52.744;6.898;2022-08-19T16:13:33;4.20;;;3.90;;
11865;SDS011;5992;52.744;6.898;2022-08-19T16:16:46;4.73;;;4.33;;
11865;SDS011;5992;52.744;6.898;2022-08-19T16:19:59;5.10;;;4.60;;
11865;SDS011;5992;52.744;6.898;2022-08-19T16:23:28;5.05;;;4.60;;
11865;SDS011;5992;52.744;6.898;2022-08-19T16:26:41;4.95;;;4.55;;
11865;SDS011;5992;52.744;6.898;2022-08-19T17:24:05;7.10;;;5.00;;
11865;SDS011;5992;52.744;6.898;2022-08-19T17:30:30;4.70;;;4.30;;
11865;SDS011;5992;52.744;6.898;2022-08-19T17:33:43;5.60;;;4.80;;
11865;SDS011;5992;52.744;6.898;2022-08-19T17:36:56;5.25;;;4.30;;
11865;SDS011;5992;52.744;6.898;2022-08-19T17:40:11;4.70;;;4.30;;
